sensor_id;sensor_type;location;lat;lon;timestamp;temperature;humidity
25668;DHT22;18003;-33.830;151.202;2022-12-29T00:00:39;22.70;99.90
25668;DHT22;18003;-33.830;151.202;2022-12-29T00:03:09;22.70;99.90
25668;DHT22;18003;-33.830;151.202;2022-12-29T00:05:39;22.70;99.90
25668;DHT22;18003;-33.830;151.202;2022-12-29T00:08:09;22.70;99.90
25668;DHT22;18003;-33.830;151.202;2022-12-29T00:10:39;22.70;99.90
25668;DHT22;18003;-33.830;151.202;2022-12-29T00:13:09;22.70;99.90
25668;DHT22;18003;-33.830;151.202;2022-12-29T00:15:56;22.70;99.90
25668;DHT22;18003;-33.830;151.202;2022-12-29T00:18:27;22.70;99.90
25668;DHT22;18003;-33.830;151.202;2022-12-29T00:20:57;22.70;99.90
25668;DHT22;18003;-33.830;151.202;2022-12-29T00:23:45;22.70;99.90
25668;DHT22;18003;-33.830;151.202;2022-12-29T00:26:32;22.70;99.90
25668;DHT22;18003;-33.830;151.202;2022-12-29T00:29:19;22.70;99.90
25668;DHT22;18003;-33.830;151.202;2022-12-29T00:32:08;22.70;99.90
25668;DHT22;18003;-33.830;151.202;2022-12-29T00:34:56;22.70;99.90
25668;DHT22;18003;-33.830;151.202;2022-12-29T00:37:43;22.70;99.90
25668;DHT22;18003;-33.830;151.202;2022-12-29T00:40:30;22.70;99.90
25668;DHT22;18003;-33.830;151.202;2022-12-29T00:43:17;22.70;99.90
25668;DHT22;18003;-33.830;151.202;2022-12-29T00:46:06;22.70;99.90
25668;DHT22;18003;-33.830;151.202;2022-12-29T00:48:36;22.70;99.90
25668;DHT22;18003;-33.830;151.202;2022-12-29T00:51:23;22.70;99.90
25668;DHT22;18003;-33.830;151.202;2022-12-29T00:53:54;22.60;99.90
25668;DHT22;18003;-33.830;151.202;2022-12-29T00:56:24;22.60;99.90
25668;DHT22;18003;-33.830;151.202;2022-12-29T00:58:54;22.60;99.90
25668;DHT22;18003;-33.830;151.202;2022-12-29T01:01:24;22.70;99.90
25668;DHT22;18003;-33.830;151.202;2022-12-29T01:03:55;22.60;99.90
25668;DHT22;18003;-33.830;151.202;2022-12-29T01:06:24;22.70;99.90
25668;DHT22;18003;-33.830;151.202;2022-12-29T01:08:55;22.60;99.90
25668;DHT22;18003;-33.830;151.202;2022-12-29T01:11:42;22.70;99.90
25668;DHT22;18003;-33.830;151.202;2022-12-29T01:14:12;22.70;99.90
25668;DHT22;18003;-33.830;151.202;2022-12-29T01:16:42;22.60;99.90
25668;DHT22;18003;-33.830;151.202;2022-12-29T01:19:12;22.70;99.90
25668;DHT22;18003;-33.830;151.202;2022-12-29T01:21:42;22.70;99.90
25668;DHT22;18003;-33.830;151.202;2022-12-29T01:24:12;22.70;99.90
25668;DHT22;18003;-33.830;151.202;2022-12-29T01:26:48;22.70;99.90
25668;DHT22;18003;-33.830;151.202;2022-12-29T01:29:14;22.70;99.90
25668;DHT22;18003;-33.830;151.202;2022-12-29T01:31:44;22.70;99.90
25668;DHT22;18003;-33.830;151.202;2022-12-29T01:34:14;22.70;99.90
25668;DHT22;18003;-33.830;151.202;2022-12-29T01:36:44;22.60;99.90
25668;DHT22;18003;-33.830;151.202;2022-12-29T01:39:14;22.60;99.90
25668;DHT22;18003;-33.830;151.202;2022-12-29T01:41:44;22.60;99.90
25668;DHT22;18003;-33.830;151.202;2022-12-29T01:44:48;22.70;99.90
25668;DHT22;18003;-33.830;151.202;2022-12-29T01:52:43;22.60;99.90
25668;DHT22;18003;-33.830;151.202;2022-12-29T01:55:13;22.60;99.90
25668;DHT22;18003;-33.830;151.202;2022-12-29T01:57:46;22.60;99.90
25668;DHT22;18003;-33.830;151.202;2022-12-29T02:00:16;22.60;99.90
25668;DHT22;18003;-33.830;151.202;2022-12-29T02:02:55;22.60;99.90
25668;DHT22;18003;-33.830;151.202;2022-12-29T02:05:38;22.60;99.90
25668;DHT22;18003;-33.830;151.202;2022-12-29T02:08:08;22.60;99.90
25668;DHT22;18003;-33.830;151.202;2022-12-29T02:10:39;22.60;99.90
25668;DHT22;18003;-33.830;151.202;2022-12-29T02:13:10;22.60;99.90
25668;DHT22;18003;-33.830;151.202;2022-12-29T02:18:33;22.60;99.90
25668;DHT22;18003;-33.830;151.202;2022-12-29T02:29:24;22.60;99.90
25668;DHT22;18003;-33.830;151.202;2022-12-29T02:32:10;22.60;99.90
25668;DHT22;18003;-33.830;151.202;2022-12-29T02:40:23;22.60;99.90
25668;DHT22;18003;-33.830;151.202;2022-12-29T02:45:45;22.70;99.90
25668;DHT22;18003;-33.830;151.202;2022-12-29T02:48:27;22.70;99.90
25668;DHT22;18003;-33.830;151.202;2022-12-29T02:51:12;22.70;99.90
25668;DHT22;18003;-33.830;151.202;2022-12-29T02:53:37;22.70;99.90
25668;DHT22;18003;-33.830;151.202;2022-12-29T02:56:26;22.70;99.90
25668;DHT22;18003;-33.830;151.202;2022-12-29T02:58:55;22.70;99.90
25668;DHT22;18003;-33.830;151.202;2022-12-29T03:06:44;22.70;99.90
25668;DHT22;18003;-33.830;151.202;2022-12-29T03:09:20;22.70;99.90
25668;DHT22;18003;-33.830;151.202;2022-12-29T03:11:58;22.70;99.90
25668;DHT22;18003;-33.830;151.202;2022-12-29T03:17:58;22.80;99.90
25668;DHT22;18003;-33.830;151.202;2022-12-29T03:20:15;22.70;99.90
25668;DHT22;18003;-33.830;151.202;2022-12-29T03:22:46;22.80;99.90
25668;DHT22;18003;-33.830;151.202;2022-12-29T03:25:28;22.80;99.90
25668;DHT22;18003;-33.830;151.202;2022-12-29T03:28:06;22.80;99.90
25668;DHT22;18003;-33.830;151.202;2022-12-29T03:30:35;22.80;99.90
25668;DHT22;18003;-33.830;151.202;2022-12-29T03:33:07;22.80;99.90
25668;DHT22;18003;-33.830;151.202;2022-12-29T03:35:41;22.80;99.90
25668;DHT22;18003;-33.830;151.202;2022-12-29T03:38:23;22.80;99.90
25668;DHT22;18003;-33.830;151.202;2022-12-29T03:40:55;22.80;99.90
25668;DHT22;18003;-33.830;151.202;2022-12-29T03:43:25;22.80;99.90
25668;DHT22;18003;-33.830;151.202;2022-12-29T03:45:58;22.80;99.90
25668;DHT22;18003;-33.830;151.202;2022-12-29T03:48:28;22.80;99.90
25668;DHT22;18003;-33.830;151.202;2022-12-29T03:50:58;22.80;99.90
25668;DHT22;18003;-33.830;151.202;2022-12-29T03:53:28;22.80;99.90
25668;DHT22;18003;-33.830;151.202;2022-12-29T03:55:58;22.80;99.90
25668;DHT22;18003;-33.830;151.202;2022-12-29T03:58:30;22.80;99.90
25668;DHT22;18003;-33.830;151.202;2022-12-29T04:01:00;22.80;99.90
25668;DHT22;18003;-33.830;151.202;2022-12-29T04:03:30;22.80;99.90
25668;DHT22;18003;-33.830;151.202;2022-12-29T04:06:01;22.80;99.90
25668;DHT22;18003;-33.830;151.202;2022-12-29T04:08:30;22.80;99.90
25668;DHT22;18003;-33.830;151.202;2022-12-29T04:11:01;22.80;99.90
25668;DHT22;18003;-33.830;151.202;2022-12-29T04:13:31;22.90;99.90
25668;DHT22;18003;-33.830;151.202;2022-12-29T04:16:01;22.80;99.90
25668;DHT22;18003;-33.830;151.202;2022-12-29T04:18:31;22.90;99.90
25668;DHT22;18003;-33.830;151.202;2022-12-29T04:21:01;22.90;99.90
25668;DHT22;18003;-33.830;151.202;2022-12-29T04:23:33;22.90;99.90
25668;DHT22;18003;-33.830;151.202;2022-12-29T04:26:04;22.90;99.90
25668;DHT22;18003;-33.830;151.202;2022-12-29T04:28:34;22.90;99.90
25668;DHT22;18003;-33.830;151.202;2022-12-29T04:31:04;22.90;99.90
25668;DHT22;18003;-33.830;151.202;2022-12-29T04:33:34;22.80;99.90
25668;DHT22;18003;-33.830;151.202;2022-12-29T04:36:05;22.90;99.90
25668;DHT22;18003;-33.830;151.202;2022-12-29T04:38:35;22.90;99.90
25668;DHT22;18003;-33.830;151.202;2022-12-29T04:41:05;22.90;99.90
25668;DHT22;18003;-33.830;151.202;2022-12-29T04:43:35;22.90;99.90
25668;DHT22;18003;-33.830;151.202;2022-12-29T04:46:08;22.90;99.90
25668;DHT22;18003;-33.830;151.202;2022-12-29T04:48:38;22.90;99.90
25668;DHT22;18003;-33.830;151.202;2022-12-29T04:51:09;22.90;99.90
25668;DHT22;18003;-33.830;151.202;2022-12-29T04:53:39;22.90;99.90
25668;DHT22;18003;-33.830;151.202;2022-12-29T04:56:12;22.90;99.90
25668;DHT22;18003;-33.830;151.202;2022-12-29T04:58:42;22.90;99.90
25668;DHT22;18003;-33.830;151.202;2022-12-29T05:01:13;22.90;99.90
25668;DHT22;18003;-33.830;151.202;2022-12-29T05:03:43;22.90;99.90
25668;DHT22;18003;-33.830;151.202;2022-12-29T05:06:13;22.90;99.90
25668;DHT22;18003;-33.830;151.202;2022-12-29T05:08:43;22.90;99.90
25668;DHT22;18003;-33.830;151.202;2022-12-29T05:11:13;22.90;99.90
25668;DHT22;18003;-33.830;151.202;2022-12-29T05:13:47;22.90;99.90
25668;DHT22;18003;-33.830;151.202;2022-12-29T05:16:17;22.90;99.90
25668;DHT22;18003;-33.830;151.202;2022-12-29T05:18:46;22.90;99.90
25668;DHT22;18003;-33.830;151.202;2022-12-29T05:21:17;22.90;99.90
25668;DHT22;18003;-33.830;151.202;2022-12-29T05:23:47;22.90;99.90
25668;DHT22;18003;-33.830;151.202;2022-12-29T05:26:17;22.90;99.90
25668;DHT22;18003;-33.830;151.202;2022-12-29T05:28:47;22.90;99.90
25668;DHT22;18003;-33.830;151.202;2022-12-29T05:31:17;22.90;99.90
25668;DHT22;18003;-33.830;151.202;2022-12-29T05:33:47;22.90;99.90
25668;DHT22;18003;-33.830;151.202;2022-12-29T05:36:17;22.90;99.90
25668;DHT22;18003;-33.830;151.202;2022-12-29T05:38:47;22.90;99.90
25668;DHT22;18003;-33.830;151.202;2022-12-29T05:41:17;22.90;99.90
25668;DHT22;18003;-33.830;151.202;2022-12-29T05:43:47;22.90;99.90
25668;DHT22;18003;-33.830;151.202;2022-12-29T05:46:17;22.90;99.90
25668;DHT22;18003;-33.830;151.202;2022-12-29T05:48:47;22.90;99.90
25668;DHT22;18003;-33.830;151.202;2022-12-29T05:51:17;22.90;99.90
25668;DHT22;18003;-33.830;151.202;2022-12-29T05:53:47;22.90;99.90
25668;DHT22;18003;-33.830;151.202;2022-12-29T05:56:17;22.90;99.90
25668;DHT22;18003;-33.830;151.202;2022-12-29T05:58:48;22.90;99.90
25668;DHT22;18003;-33.830;151.202;2022-12-29T06:01:19;22.80;99.90
25668;DHT22;18003;-33.830;151.202;2022-12-29T06:03:49;22.90;99.90
25668;DHT22;18003;-33.830;151.202;2022-12-29T06:06:19;22.90;99.90
25668;DHT22;18003;-33.830;151.202;2022-12-29T06:08:49;22.90;99.90
25668;DHT22;18003;-33.830;151.202;2022-12-29T06:11:19;22.90;99.90
25668;DHT22;18003;-33.830;151.202;2022-12-29T06:13:49;22.90;99.90
25668;DHT22;18003;-33.830;151.202;2022-12-29T06:16:19;22.90;99.90
25668;DHT22;18003;-33.830;151.202;2022-12-29T06:18:49;22.90;99.90
25668;DHT22;18003;-33.830;151.202;2022-12-29T06:21:21;22.80;99.90
25668;DHT22;18003;-33.830;151.202;2022-12-29T06:23:51;22.80;99.90
25668;DHT22;18003;-33.830;151.202;2022-12-29T06:26:21;22.80;99.90
25668;DHT22;18003;-33.830;151.202;2022-12-29T06:28:51;22.80;99.90
25668;DHT22;18003;-33.830;151.202;2022-12-29T06:31:21;22.80;99.90
25668;DHT22;18003;-33.830;151.202;2022-12-29T06:33:51;22.80;99.90
25668;DHT22;18003;-33.830;151.202;2022-12-29T06:36:21;22.80;99.90
25668;DHT22;18003;-33.830;151.202;2022-12-29T06:38:51;22.70;99.90
25668;DHT22;18003;-33.830;151.202;2022-12-29T06:41:21;22.70;99.90
25668;DHT22;18003;-33.830;151.202;2022-12-29T06:43:51;22.70;99.90
25668;DHT22;18003;-33.830;151.202;2022-12-29T06:46:22;22.70;99.90
25668;DHT22;18003;-33.830;151.202;2022-12-29T06:48:52;22.70;99.90
25668;DHT22;18003;-33.830;151.202;2022-12-29T06:51:21;22.70;99.90
25668;DHT22;18003;-33.830;151.202;2022-12-29T06:53:52;22.70;99.90
25668;DHT22;18003;-33.830;151.202;2022-12-29T06:56:22;22.60;99.90
25668;DHT22;18003;-33.830;151.202;2022-12-29T06:58:52;22.60;99.90
25668;DHT22;18003;-33.830;151.202;2022-12-29T07:01:22;22.60;99.90
25668;DHT22;18003;-33.830;151.202;2022-12-29T07:03:52;22.60;99.90
25668;DHT22;18003;-33.830;151.202;2022-12-29T07:06:23;22.60;99.90
25668;DHT22;18003;-33.830;151.202;2022-12-29T07:08:53;22.60;99.90
25668;DHT22;18003;-33.830;151.202;2022-12-29T07:11:24;22.60;99.90
25668;DHT22;18003;-33.830;151.202;2022-12-29T07:13:55;22.60;99.90
25668;DHT22;18003;-33.830;151.202;2022-12-29T07:16:25;22.60;99.90
25668;DHT22;18003;-33.830;151.202;2022-12-29T07:18:55;22.60;99.90
25668;DHT22;18003;-33.830;151.202;2022-12-29T07:21:25;22.60;99.90
25668;DHT22;18003;-33.830;151.202;2022-12-29T07:23:57;22.60;99.90
25668;DHT22;18003;-33.830;151.202;2022-12-29T07:26:26;22.60;99.90
25668;DHT22;18003;-33.830;151.202;2022-12-29T07:28:56;22.60;99.90
25668;DHT22;18003;-33.830;151.202;2022-12-29T07:31:25;22.50;99.90
25668;DHT22;18003;-33.830;151.202;2022-12-29T07:33:56;22.60;99.90
25668;DHT22;18003;-33.830;151.202;2022-12-29T07:36:25;22.60;99.90
25668;DHT22;18003;-33.830;151.202;2022-12-29T07:38:55;22.60;99.90
25668;DHT22;18003;-33.830;151.202;2022-12-29T07:41:25;22.60;99.90
25668;DHT22;18003;-33.830;151.202;2022-12-29T07:43:56;22.50;99.90
25668;DHT22;18003;-33.830;151.202;2022-12-29T07:46:26;22.50;99.90
25668;DHT22;18003;-33.830;151.202;2022-12-29T07:48:57;22.50;99.90
25668;DHT22;18003;-33.830;151.202;2022-12-29T07:51:26;22.50;99.90
25668;DHT22;18003;-33.830;151.202;2022-12-29T07:53:57;22.50;99.90
25668;DHT22;18003;-33.830;151.202;2022-12-29T07:56:28;22.50;99.90
25668;DHT22;18003;-33.830;151.202;2022-12-29T07:58:58;22.50;99.90
25668;DHT22;18003;-33.830;151.202;2022-12-29T08:01:49;22.50;99.90
25668;DHT22;18003;-33.830;151.202;2022-12-29T08:04:37;22.50;99.90
25668;DHT22;18003;-33.830;151.202;2022-12-29T08:07:08;22.50;99.90
25668;DHT22;18003;-33.830;151.202;2022-12-29T08:09:38;22.50;99.90
25668;DHT22;18003;-33.830;151.202;2022-12-29T08:12:09;22.50;99.90
25668;DHT22;18003;-33.830;151.202;2022-12-29T08:14:38;22.50;99.90
25668;DHT22;18003;-33.830;151.202;2022-12-29T08:17:08;22.50;99.90
25668;DHT22;18003;-33.830;151.202;2022-12-29T08:19:38;22.50;99.90
25668;DHT22;18003;-33.830;151.202;2022-12-29T08:22:09;22.50;99.90
25668;DHT22;18003;-33.830;151.202;2022-12-29T08:24:39;22.40;99.90
25668;DHT22;18003;-33.830;151.202;2022-12-29T08:27:09;22.40;99.90
25668;DHT22;18003;-33.830;151.202;2022-12-29T08:29:39;22.40;99.90
25668;DHT22;18003;-33.830;151.202;2022-12-29T08:32:09;22.40;99.90
25668;DHT22;18003;-33.830;151.202;2022-12-29T08:34:39;22.40;99.90
25668;DHT22;18003;-33.830;151.202;2022-12-29T08:37:09;22.40;99.90
25668;DHT22;18003;-33.830;151.202;2022-12-29T08:39:40;22.40;99.90
25668;DHT22;18003;-33.830;151.202;2022-12-29T08:42:10;22.40;99.90
25668;DHT22;18003;-33.830;151.202;2022-12-29T08:44:40;22.40;99.90
25668;DHT22;18003;-33.830;151.202;2022-12-29T08:47:11;22.40;99.90
25668;DHT22;18003;-33.830;151.202;2022-12-29T08:49:41;22.40;99.90
25668;DHT22;18003;-33.830;151.202;2022-12-29T08:52:11;22.40;99.90
25668;DHT22;18003;-33.830;151.202;2022-12-29T08:54:41;22.40;99.90
25668;DHT22;18003;-33.830;151.202;2022-12-29T08:57:11;22.40;99.90
25668;DHT22;18003;-33.830;151.202;2022-12-29T08:59:41;22.40;99.90
25668;DHT22;18003;-33.830;151.202;2022-12-29T09:02:14;22.30;99.90
25668;DHT22;18003;-33.830;151.202;2022-12-29T09:04:44;22.30;99.90
25668;DHT22;18003;-33.830;151.202;2022-12-29T09:07:14;22.30;99.90
25668;DHT22;18003;-33.830;151.202;2022-12-29T09:09:45;22.30;99.90
25668;DHT22;18003;-33.830;151.202;2022-12-29T09:12:15;22.30;99.90
25668;DHT22;18003;-33.830;151.202;2022-12-29T09:14:46;22.30;99.90
25668;DHT22;18003;-33.830;151.202;2022-12-29T09:17:16;22.30;99.90
25668;DHT22;18003;-33.830;151.202;2022-12-29T09:20:04;22.30;99.90
25668;DHT22;18003;-33.830;151.202;2022-12-29T09:22:34;22.30;99.90
25668;DHT22;18003;-33.830;151.202;2022-12-29T09:25:05;22.30;99.90
25668;DHT22;18003;-33.830;151.202;2022-12-29T09:27:36;22.30;99.90
25668;DHT22;18003;-33.830;151.202;2022-12-29T09:30:08;22.30;99.90
25668;DHT22;18003;-33.830;151.202;2022-12-29T09:32:38;22.30;99.90
25668;DHT22;18003;-33.830;151.202;2022-12-29T09:35:08;22.40;99.90
25668;DHT22;18003;-33.830;151.202;2022-12-29T09:37:38;22.40;99.90
25668;DHT22;18003;-33.830;151.202;2022-12-29T09:40:22;22.40;99.90
25668;DHT22;18003;-33.830;151.202;2022-12-29T09:42:43;22.40;99.90
25668;DHT22;18003;-33.830;151.202;2022-12-29T09:47:53;22.30;99.90
25668;DHT22;18003;-33.830;151.202;2022-12-29T09:50:30;22.30;99.90
25668;DHT22;18003;-33.830;151.202;2022-12-29T09:53:14;22.40;99.90
25668;DHT22;18003;-33.830;151.202;2022-12-29T09:55:53;22.40;99.90
25668;DHT22;18003;-33.830;151.202;2022-12-29T09:58:29;22.50;99.90
25668;DHT22;18003;-33.830;151.202;2022-12-29T10:01:23;22.40;99.90
25668;DHT22;18003;-33.830;151.202;2022-12-29T10:03:52;22.50;99.90
25668;DHT22;18003;-33.830;151.202;2022-12-29T10:09:22;22.40;99.90
25668;DHT22;18003;-33.830;151.202;2022-12-29T10:14:54;22.40;99.90
25668;DHT22;18003;-33.830;151.202;2022-12-29T10:17:44;22.40;99.90
25668;DHT22;18003;-33.830;151.202;2022-12-29T10:23:16;22.40;99.90
25668;DHT22;18003;-33.830;151.202;2022-12-29T10:25:43;22.40;99.90
25668;DHT22;18003;-33.830;151.202;2022-12-29T10:28:24;22.40;99.90
25668;DHT22;18003;-33.830;151.202;2022-12-29T10:30:55;22.40;99.90
25668;DHT22;18003;-33.830;151.202;2022-12-29T10:33:32;22.40;99.90
25668;DHT22;18003;-33.830;151.202;2022-12-29T10:36:21;22.30;99.90
25668;DHT22;18003;-33.830;151.202;2022-12-29T10:41:28;22.40;99.90
25668;DHT22;18003;-33.830;151.202;2022-12-29T10:43:58;22.30;99.90
25668;DHT22;18003;-33.830;151.202;2022-12-29T10:46:31;22.30;99.90
25668;DHT22;18003;-33.830;151.202;2022-12-29T10:49:01;22.30;99.90
25668;DHT22;18003;-33.830;151.202;2022-12-29T10:51:32;22.30;99.90
25668;DHT22;18003;-33.830;151.202;2022-12-29T10:56:52;22.20;99.90
25668;DHT22;18003;-33.830;151.202;2022-12-29T10:59:20;22.30;99.90
25668;DHT22;18003;-33.830;151.202;2022-12-29T11:07:27;22.20;99.90
25668;DHT22;18003;-33.830;151.202;2022-12-29T11:10:19;22.30;99.90
25668;DHT22;18003;-33.830;151.202;2022-12-29T11:13:00;22.20;99.90
25668;DHT22;18003;-33.830;151.202;2022-12-29T11:15:40;22.30;99.90
25668;DHT22;18003;-33.830;151.202;2022-12-29T11:18:30;22.30;99.90
25668;DHT22;18003;-33.830;151.202;2022-12-29T11:20:59;22.30;99.90
25668;DHT22;18003;-33.830;151.202;2022-12-29T11:23:34;22.30;99.90
25668;DHT22;18003;-33.830;151.202;2022-12-29T11:26:12;22.20;99.90
25668;DHT22;18003;-33.830;151.202;2022-12-29T11:28:42;22.30;99.90
25668;DHT22;18003;-33.830;151.202;2022-12-29T11:31:16;22.30;99.90
25668;DHT22;18003;-33.830;151.202;2022-12-29T11:33:48;22.30;99.90
25668;DHT22;18003;-33.830;151.202;2022-12-29T11:36:22;22.30;99.90
25668;DHT22;18003;-33.830;151.202;2022-12-29T11:38:53;22.30;99.90
25668;DHT22;18003;-33.830;151.202;2022-12-29T11:41:23;22.30;99.90
25668;DHT22;18003;-33.830;151.202;2022-12-29T11:43:55;22.30;99.90
25668;DHT22;18003;-33.830;151.202;2022-12-29T11:46:27;22.30;99.90
25668;DHT22;18003;-33.830;151.202;2022-12-29T11:48:58;22.20;99.90
25668;DHT22;18003;-33.830;151.202;2022-12-29T11:51:28;22.20;99.90
25668;DHT22;18003;-33.830;151.202;2022-12-29T11:53:59;22.20;99.90
25668;DHT22;18003;-33.830;151.202;2022-12-29T11:56:40;22.20;99.90
25668;DHT22;18003;-33.830;151.202;2022-12-29T12:04:43;22.20;99.90
25668;DHT22;18003;-33.830;151.202;2022-12-29T12:07:18;22.20;99.90
25668;DHT22;18003;-33.830;151.202;2022-12-29T12:09:57;22.20;99.90
25668;DHT22;18003;-33.830;151.202;2022-12-29T12:15:12;22.20;99.90
25668;DHT22;18003;-33.830;151.202;2022-12-29T12:26:15;22.60;99.90
25668;DHT22;18003;-33.830;151.202;2022-12-29T12:29:04;22.80;99.90
25668;DHT22;18003;-33.830;151.202;2022-12-29T12:31:59;22.90;99.90
25668;DHT22;18003;-33.830;151.202;2022-12-29T12:34:29;23.00;99.90
25668;DHT22;18003;-33.830;151.202;2022-12-29T12:37:06;23.10;99.90
25668;DHT22;18003;-33.830;151.202;2022-12-29T12:40:06;23.20;99.90
25668;DHT22;18003;-33.830;151.202;2022-12-29T12:45:27;23.20;99.90
25668;DHT22;18003;-33.830;151.202;2022-12-29T12:59:13;23.30;99.90
25668;DHT22;18003;-33.830;151.202;2022-12-29T13:01:53;23.30;99.90
25668;DHT22;18003;-33.830;151.202;2022-12-29T13:04:38;23.30;99.90
25668;DHT22;18003;-33.830;151.202;2022-12-29T13:07:28;23.30;99.90
25668;DHT22;18003;-33.830;151.202;2022-12-29T13:12:43;23.20;99.90
25668;DHT22;18003;-33.830;151.202;2022-12-29T13:15:21;23.20;99.90
25668;DHT22;18003;-33.830;151.202;2022-12-29T13:18:00;23.20;99.90
25668;DHT22;18003;-33.830;151.202;2022-12-29T13:26:35;23.20;99.90
25668;DHT22;18003;-33.830;151.202;2022-12-29T13:31:48;23.20;99.90
25668;DHT22;18003;-33.830;151.202;2022-12-29T13:37:13;23.10;99.90
25668;DHT22;18003;-33.830;151.202;2022-12-29T13:39:51;23.10;99.90
25668;DHT22;18003;-33.830;151.202;2022-12-29T13:42:21;23.10;99.90
25668;DHT22;18003;-33.830;151.202;2022-12-29T13:45:04;23.10;99.90
25668;DHT22;18003;-33.830;151.202;2022-12-29T13:47:44;23.10;99.90
25668;DHT22;18003;-33.830;151.202;2022-12-29T13:50:18;23.10;99.90
25668;DHT22;18003;-33.830;151.202;2022-12-29T13:53:15;23.10;99.90
25668;DHT22;18003;-33.830;151.202;2022-12-29T13:58:53;23.10;99.90
25668;DHT22;18003;-33.830;151.202;2022-12-29T14:07:00;23.00;99.90
25668;DHT22;18003;-33.830;151.202;2022-12-29T14:12:29;23.00;99.90
25668;DHT22;18003;-33.830;151.202;2022-12-29T14:17:41;23.00;99.90
25668;DHT22;18003;-33.830;151.202;2022-12-29T14:20:22;22.90;99.90
25668;DHT22;18003;-33.830;151.202;2022-12-29T14:23:15;22.90;99.90
25668;DHT22;18003;-33.830;151.202;2022-12-29T14:28:49;22.90;99.90
25668;DHT22;18003;-33.830;151.202;2022-12-29T14:37:00;22.80;99.90
25668;DHT22;18003;-33.830;151.202;2022-12-29T14:39:33;22.80;99.90
25668;DHT22;18003;-33.830;151.202;2022-12-29T14:42:04;22.80;99.90
25668;DHT22;18003;-33.830;151.202;2022-12-29T14:44:48;22.80;99.90
25668;DHT22;18003;-33.830;151.202;2022-12-29T14:47:26;22.80;99.90
25668;DHT22;18003;-33.830;151.202;2022-12-29T14:49:54;22.80;99.90
25668;DHT22;18003;-33.830;151.202;2022-12-29T14:52:25;22.80;99.90
25668;DHT22;18003;-33.830;151.202;2022-12-29T14:54:58;22.80;99.90
25668;DHT22;18003;-33.830;151.202;2022-12-29T14:57:35;22.70;99.90
25668;DHT22;18003;-33.830;151.202;2022-12-29T15:00:23;22.70;99.90
25668;DHT22;18003;-33.830;151.202;2022-12-29T15:05:54;22.70;99.90
25668;DHT22;18003;-33.830;151.202;2022-12-29T15:08:31;22.70;99.90
25668;DHT22;18003;-33.830;151.202;2022-12-29T15:10:58;22.70;99.90
25668;DHT22;18003;-33.830;151.202;2022-12-29T15:13:34;22.70;99.90
25668;DHT22;18003;-33.830;151.202;2022-12-29T15:16:20;22.70;99.90
25668;DHT22;18003;-33.830;151.202;2022-12-29T15:18:37;22.70;99.90
25668;DHT22;18003;-33.830;151.202;2022-12-29T15:21:11;22.60;99.90
25668;DHT22;18003;-33.830;151.202;2022-12-29T15:23:42;22.60;99.90
25668;DHT22;18003;-33.830;151.202;2022-12-29T15:26:13;22.60;99.90
25668;DHT22;18003;-33.830;151.202;2022-12-29T15:28:45;22.60;99.90
25668;DHT22;18003;-33.830;151.202;2022-12-29T15:31:24;22.60;99.90
25668;DHT22;18003;-33.830;151.202;2022-12-29T15:33:52;22.60;99.90
25668;DHT22;18003;-33.830;151.202;2022-12-29T15:36:26;22.70;99.90
25668;DHT22;18003;-33.830;151.202;2022-12-29T15:38:56;22.60;99.90
25668;DHT22;18003;-33.830;151.202;2022-12-29T15:41:39;22.60;99.90
25668;DHT22;18003;-33.830;151.202;2022-12-29T15:44:25;22.60;99.90
25668;DHT22;18003;-33.830;151.202;2022-12-29T15:46:56;22.60;99.90
25668;DHT22;18003;-33.830;151.202;2022-12-29T15:49:26;22.50;99.90
25668;DHT22;18003;-33.830;151.202;2022-12-29T15:51:56;22.50;99.90
25668;DHT22;18003;-33.830;151.202;2022-12-29T15:54:28;22.50;99.90
25668;DHT22;18003;-33.830;151.202;2022-12-29T15:57:00;22.50;99.90
25668;DHT22;18003;-33.830;151.202;2022-12-29T15:59:29;22.50;99.90
25668;DHT22;18003;-33.830;151.202;2022-12-29T16:02:00;22.50;99.90
25668;DHT22;18003;-33.830;151.202;2022-12-29T16:04:32;22.50;99.90
25668;DHT22;18003;-33.830;151.202;2022-12-29T16:07:04;22.50;99.90
25668;DHT22;18003;-33.830;151.202;2022-12-29T16:09:46;22.50;99.90
25668;DHT22;18003;-33.830;151.202;2022-12-29T16:12:17;22.50;99.90
25668;DHT22;18003;-33.830;151.202;2022-12-29T16:14:55;22.50;99.90
25668;DHT22;18003;-33.830;151.202;2022-12-29T16:17:27;22.50;99.90
25668;DHT22;18003;-33.830;151.202;2022-12-29T16:20:16;22.50;99.90
25668;DHT22;18003;-33.830;151.202;2022-12-29T16:22:54;22.50;99.90
25668;DHT22;18003;-33.830;151.202;2022-12-29T16:25:25;22.50;99.90
25668;DHT22;18003;-33.830;151.202;2022-12-29T16:27:56;22.50;99.90
25668;DHT22;18003;-33.830;151.202;2022-12-29T16:30:33;22.50;99.90
25668;DHT22;18003;-33.830;151.202;2022-12-29T16:33:04;22.50;99.90
25668;DHT22;18003;-33.830;151.202;2022-12-29T16:35:45;22.50;99.90
25668;DHT22;18003;-33.830;151.202;2022-12-29T16:38:20;22.50;99.90
25668;DHT22;18003;-33.830;151.202;2022-12-29T16:41:00;22.50;99.90
25668;DHT22;18003;-33.830;151.202;2022-12-29T16:43:37;22.50;99.90
25668;DHT22;18003;-33.830;151.202;2022-12-29T16:46:24;22.40;99.90
25668;DHT22;18003;-33.830;151.202;2022-12-29T16:48:58;22.50;99.90
25668;DHT22;18003;-33.830;151.202;2022-12-29T16:51:35;22.40;99.90
25668;DHT22;18003;-33.830;151.202;2022-12-29T16:54:06;22.40;99.90
25668;DHT22;18003;-33.830;151.202;2022-12-29T16:56:37;22.50;99.90
25668;DHT22;18003;-33.830;151.202;2022-12-29T16:59:18;22.50;99.90
25668;DHT22;18003;-33.830;151.202;2022-12-29T17:01:41;22.50;99.90
25668;DHT22;18003;-33.830;151.202;2022-12-29T17:04:13;22.40;99.90
25668;DHT22;18003;-33.830;151.202;2022-12-29T17:06:43;22.40;99.90
25668;DHT22;18003;-33.830;151.202;2022-12-29T17:09:23;22.50;99.90
25668;DHT22;18003;-33.830;151.202;2022-12-29T17:11:59;22.40;99.90
25668;DHT22;18003;-33.830;151.202;2022-12-29T17:14:48;22.40;99.90
25668;DHT22;18003;-33.830;151.202;2022-12-29T17:20:05;22.40;99.90
25668;DHT22;18003;-33.830;151.202;2022-12-29T17:22:37;22.40;99.90
25668;DHT22;18003;-33.830;151.202;2022-12-29T17:25:11;22.40;99.90
25668;DHT22;18003;-33.830;151.202;2022-12-29T17:27:43;22.40;99.90
25668;DHT22;18003;-33.830;151.202;2022-12-29T17:30:20;22.40;99.90
25668;DHT22;18003;-33.830;151.202;2022-12-29T17:32:52;22.40;99.90
25668;DHT22;18003;-33.830;151.202;2022-12-29T17:35:21;22.40;99.90